createdAt,value
2023-05-16T00:02:57.006Z,22.70
2023-05-16T00:08:00.996Z,22.70
2023-05-16T00:13:05.134Z,22.70
2023-05-16T00:18:09.338Z,22.70
2023-05-16T00:23:13.711Z,22.70
2023-05-16T00:28:17.847Z,22.70
2023-05-16T00:33:22.290Z,22.70
2023-05-16T00:38:26.733Z,22.60
2023-05-16T00:43:31.275Z,22.60
2023-05-16T00:48:35.811Z,22.60
2023-05-16T00:53:40.060Z,22.50
2023-05-16T00:58:44.499Z,22.60
2023-05-16T01:03:50.091Z,22.50
2023-05-16T01:08:54.195Z,22.50
2023-05-16T01:14:23.808Z,22.50
2023-05-16T01:19:54.807Z,22.50
2023-05-16T01:25:17.311Z,22.60
2023-05-16T01:30:21.658Z,22.60
2023-05-16T01:35:26.018Z,22.50
2023-05-16T01:40:56.739Z,22.50
2023-05-16T01:46:08.897Z,22.40
2023-05-16T01:51:14.729Z,22.40
2023-05-16T01:56:20.379Z,22.40
2023-05-16T02:01:25.094Z,22.40
2023-05-16T02:06:29.271Z,22.40
2023-05-16T02:11:34.140Z,22.40
2023-05-16T02:16:39.023Z,22.40
2023-05-16T02:21:43.011Z,22.30
2023-05-16T02:26:48.875Z,22.30
2023-05-16T02:31:52.999Z,22.30
2023-05-16T02:36:56.842Z,22.30
2023-05-16T02:42:00.998Z,22.20
2023-05-16T02:47:05.535Z,22.20
2023-05-16T02:52:09.537Z,22.20
2023-05-16T02:57:13.859Z,22.20
2023-05-16T03:02:17.855Z,22.20
2023-05-16T03:07:21.851Z,22.20
2023-05-16T03:12:25.983Z,22.20
2023-05-16T03:17:30.165Z,22.20
2023-05-16T03:22:34.784Z,22.20
2023-05-16T03:27:38.802Z,22.10
2023-05-16T03:32:42.750Z,22.10
2023-05-16T03:37:46.869Z,22.10
2023-05-16T03:42:51.360Z,22.10
2023-05-16T03:47:55.356Z,22.00
2023-05-16T03:52:59.800Z,22.10
2023-05-16T03:58:03.727Z,22.10
2023-05-16T04:03:08.103Z,22.00
2023-05-16T04:08:12.522Z,22.00
2023-05-16T04:13:16.678Z,22.00
2023-05-16T04:18:20.886Z,22.00
2023-05-16T04:23:24.808Z,22.10
2023-05-16T04:28:28.977Z,22.10
2023-05-16T04:33:33.182Z,22.00
2023-05-16T04:38:37.208Z,22.10
2023-05-16T04:43:42.359Z,22.00
2023-05-16T04:48:46.614Z,22.00
2023-05-16T04:53:50.844Z,22.00
2023-05-16T04:58:55.306Z,22.00
2023-05-16T05:03:59.634Z,22.00
2023-05-16T05:09:03.665Z,22.00
2023-05-16T05:14:07.792Z,22.00
2023-05-16T05:19:11.639Z,22.00
2023-05-16T05:24:15.860Z,22.00
2023-05-16T05:29:19.783Z,22.10
2023-05-16T05:34:23.810Z,22.10
2023-05-16T05:39:27.866Z,22.10
2023-05-16T05:44:32.202Z,22.20
2023-05-16T05:49:36.421Z,22.30
2023-05-16T05:54:40.683Z,22.30
2023-05-16T05:59:44.603Z,22.30
2023-05-16T06:04:48.658Z,22.30
2023-05-16T06:09:53.094Z,22.30
2023-05-16T06:14:57.104Z,22.40
2023-05-16T06:20:01.550Z,22.30
2023-05-16T06:25:07.034Z,22.40
2023-05-16T06:30:22.107Z,22.30
2023-05-16T06:35:27.507Z,22.50
2023-05-16T06:40:31.492Z,22.50
2023-05-16T06:45:35.725Z,22.60
2023-05-16T06:50:39.871Z,22.60
2023-05-16T06:55:44.130Z,22.50
2023-05-16T07:00:50.658Z,22.40
2023-05-16T07:05:55.024Z,22.60
2023-05-16T07:10:59.478Z,22.60
2023-05-16T07:16:04.080Z,22.70
2023-05-16T07:21:08.782Z,22.70
2023-05-16T07:26:12.810Z,22.70
2023-05-16T07:31:17.691Z,22.60
2023-05-16T07:36:21.694Z,22.60
2023-05-16T07:41:26.018Z,22.60
2023-05-16T07:46:30.512Z,22.50
2023-05-16T07:51:37.160Z,22.90
2023-05-16T07:56:42.473Z,22.90
2023-05-16T08:01:47.054Z,22.90
2023-05-16T08:06:51.225Z,22.90
2023-05-16T08:11:55.528Z,22.90
2023-05-16T08:17:00.906Z,22.90
2023-05-16T08:22:07.566Z,22.80
2023-05-16T08:27:12.650Z,22.70
2023-05-16T08:32:16.986Z,22.70
2023-05-16T08:37:21.428Z,22.70
2023-05-16T08:42:25.550Z,22.80
2023-05-16T08:47:32.498Z,22.80
2023-05-16T08:52:39.706Z,22.80
2023-05-16T08:57:44.826Z,22.80
2023-05-16T09:02:49.561Z,22.80
2023-05-16T09:07:53.706Z,22.90
2023-05-16T09:12:58.170Z,22.90
2023-05-16T09:18:03.665Z,22.90
2023-05-16T09:23:10.013Z,23.00
2023-05-16T09:28:15.145Z,23.00
2023-05-16T09:33:19.408Z,23.00
2023-05-16T09:38:23.323Z,23.10
2023-05-16T09:43:27.882Z,23.10
2023-05-16T09:48:33.741Z,23.10
2023-05-16T09:53:39.111Z,23.30
2023-05-16T09:58:44.449Z,23.30
2023-05-16T10:03:48.710Z,23.30
2023-05-16T10:08:53.143Z,23.30
2023-05-16T10:13:57.493Z,23.30
2023-05-16T10:19:04.213Z,23.40
2023-05-16T10:24:12.411Z,23.40
2023-05-16T10:29:17.569Z,23.40
2023-05-16T10:34:21.998Z,23.40
2023-05-16T10:39:26.857Z,23.50
2023-05-16T10:44:34.265Z,23.40
2023-05-16T10:49:42.509Z,23.40
2023-05-16T10:54:52.555Z,23.50
2023-05-16T11:00:02.327Z,23.60
2023-05-16T11:05:09.278Z,23.60
2023-05-16T11:10:17.585Z,23.60
2023-05-16T11:15:25.933Z,23.60
2023-05-16T11:20:35.696Z,23.70
2023-05-16T11:25:41.594Z,23.60
2023-05-16T11:30:56.483Z,23.60
2023-05-16T11:36:15.843Z,23.50
2023-05-16T11:41:22.684Z,23.60
2023-05-16T11:46:27.867Z,23.60
2023-05-16T11:51:32.609Z,23.60
2023-05-16T11:56:37.454Z,23.70
2023-05-16T12:01:41.911Z,23.70
2023-05-16T12:06:59.170Z,23.70
2023-05-16T12:12:06.018Z,23.60
2023-05-16T12:17:10.175Z,23.50
2023-05-16T12:22:20.774Z,23.60
2023-05-16T12:27:30.411Z,23.60
2023-05-16T12:32:38.300Z,23.60
2023-05-16T12:37:44.332Z,23.70
2023-05-16T12:42:52.730Z,23.60
2023-05-16T12:47:56.906Z,23.70
2023-05-16T12:53:02.135Z,23.60
2023-05-16T12:58:06.509Z,23.50
2023-05-16T13:03:12.093Z,23.50
2023-05-16T13:08:16.574Z,23.50
2023-05-16T13:13:34.974Z,23.40
2023-05-16T13:18:40.227Z,23.50
2023-05-16T13:23:44.535Z,23.50
2023-05-16T13:28:51.862Z,23.40
2023-05-16T13:33:56.380Z,23.40
2023-05-16T13:39:00.672Z,23.40
2023-05-16T13:44:07.479Z,23.40
2023-05-16T13:49:11.572Z,23.40
2023-05-16T13:54:15.990Z,23.40
2023-05-16T13:59:28.528Z,23.30
2023-05-16T14:04:44.555Z,23.20
2023-05-16T14:09:48.676Z,23.20
2023-05-16T14:14:55.673Z,23.30
2023-05-16T14:20:00.706Z,23.20
2023-05-16T14:25:06.576Z,23.20
2023-05-16T14:30:11.561Z,23.20
2023-05-16T14:35:15.593Z,23.10
2023-05-16T14:40:19.629Z,23.10
2023-05-16T14:45:23.880Z,23.10
2023-05-16T14:50:29.216Z,23.10
2023-05-16T14:55:33.361Z,23.00
2023-05-16T15:00:37.503Z,23.00
2023-05-16T15:05:41.539Z,23.10
2023-05-16T15:10:45.873Z,23.10
2023-05-16T15:15:49.930Z,23.10
2023-05-16T15:20:54.046Z,23.00
2023-05-16T15:25:58.374Z,23.10
2023-05-16T15:31:05.092Z,23.10
2023-05-16T15:36:09.621Z,23.00
2023-05-16T15:41:24.038Z,23.10
2023-05-16T15:46:40.135Z,23.00
2023-05-16T15:51:44.421Z,23.00
2023-05-16T15:56:48.762Z,23.00
2023-05-16T16:01:54.798Z,23.00
2023-05-16T16:06:59.481Z,23.00
2023-05-16T16:12:03.622Z,23.00
2023-05-16T16:17:07.663Z,22.90
2023-05-16T16:22:12.411Z,22.90
2023-05-16T16:27:16.830Z,23.00
2023-05-16T16:32:20.676Z,23.10
2023-05-16T16:37:25.944Z,23.30
2023-05-16T16:42:30.877Z,23.20
2023-05-16T16:47:34.922Z,23.20
2023-05-16T16:52:39.042Z,23.00
2023-05-16T16:57:43.398Z,23.00
2023-05-16T17:02:47.317Z,23.10
2023-05-16T17:07:52.164Z,23.10
2023-05-16T17:12:56.304Z,23.10
2023-05-16T17:18:00.498Z,23.10
2023-05-16T17:23:07.055Z,23.00
2023-05-16T17:28:11.978Z,22.90
2023-05-16T17:33:16.663Z,22.90
2023-05-16T17:38:20.652Z,23.00
2023-05-16T17:43:25.014Z,22.90
2023-05-16T17:48:32.486Z,23.00
2023-05-16T17:53:39.740Z,22.90
2023-05-16T17:58:46.089Z,23.00
2023-05-16T18:03:51.019Z,23.00
2023-05-16T18:08:57.025Z,23.00
2023-05-16T18:14:02.516Z,22.90
2023-05-16T18:19:09.312Z,22.80
2023-05-16T18:24:16.263Z,22.90
2023-05-16T18:29:21.464Z,22.90
2023-05-16T18:34:26.901Z,22.90
2023-05-16T18:39:32.589Z,22.90
2023-05-16T18:44:38.275Z,22.90
2023-05-16T18:49:44.360Z,22.80
2023-05-16T18:54:49.084Z,22.80
2023-05-16T18:59:56.707Z,22.90
2023-05-16T19:05:02.455Z,22.80
2023-05-16T19:10:08.050Z,22.70
2023-05-16T19:15:13.412Z,22.70
2023-05-16T19:20:18.170Z,22.60
2023-05-16T19:25:22.498Z,22.60
2023-05-16T19:30:27.202Z,22.60
2023-05-16T19:35:33.679Z,22.60
2023-05-16T19:40:39.573Z,22.60
2023-05-16T19:45:43.763Z,22.60
2023-05-16T19:50:48.008Z,22.70
2023-05-16T19:55:52.114Z,22.90
2023-05-16T20:00:57.741Z,22.80
2023-05-16T20:06:03.167Z,22.70
2023-05-16T20:11:07.711Z,22.70
2023-05-16T20:16:13.371Z,22.70
2023-05-16T20:21:17.801Z,22.70
2023-05-16T20:26:22.871Z,22.80
2023-05-16T20:31:27.308Z,22.80
2023-05-16T20:36:31.451Z,22.70
2023-05-16T20:41:36.092Z,22.70
2023-05-16T20:46:41.157Z,22.80
2023-05-16T20:51:45.184Z,22.90
2023-05-16T20:56:49.227Z,22.90
2023-05-16T21:01:54.051Z,23.00
2023-05-16T21:06:58.209Z,22.90
2023-05-16T21:12:02.638Z,23.00
2023-05-16T21:17:06.992Z,23.00
2023-05-16T21:22:11.844Z,23.00
2023-05-16T21:27:15.986Z,23.10
2023-05-16T21:32:20.559Z,23.20
2023-05-16T21:37:24.972Z,23.20
2023-05-16T21:42:28.994Z,23.20
2023-05-16T21:47:33.195Z,23.20
2023-05-16T21:52:38.381Z,23.20
2023-05-16T21:57:42.527Z,23.20
2023-05-16T22:02:46.907Z,23.20
2023-05-16T22:07:52.022Z,23.20
2023-05-16T22:12:56.246Z,23.30
2023-05-16T22:18:00.480Z,23.30
2023-05-16T22:23:04.539Z,23.40
2023-05-16T22:28:08.770Z,23.40
2023-05-16T22:33:13.102Z,23.30
2023-05-16T22:38:17.446Z,23.20
2023-05-16T22:43:21.688Z,23.20
2023-05-16T22:48:26.365Z,23.40
2023-05-16T22:53:30.564Z,23.20
2023-05-16T22:58:35.091Z,23.20
2023-05-16T23:03:39.123Z,23.20
2023-05-16T23:08:43.360Z,23.20
2023-05-16T23:13:47.633Z,23.10
2023-05-16T23:18:52.010Z,23.10
2023-05-16T23:23:56.307Z,23.10
2023-05-16T23:29:00.957Z,23.10
2023-05-16T23:34:05.270Z,23.00
2023-05-16T23:39:09.513Z,23.10
2023-05-16T23:44:14.370Z,23.00
2023-05-16T23:49:18.298Z,22.90
2023-05-16T23:54:22.543Z,22.90
2023-05-16T23:59:26.670Z,22.80
